Latest Weather Observations for Horsley Park

IDN60801

Issued at 10:32 am EST Thursday 2 July 2015 (issued every 30 minutes, with the page automatically refreshed every 10 minutes)

About weather observations | Map of weather stations | Latest weather observations for NSW | Other Formats
Station Details ID: 067119 Name: HORSLEY PARK EQUESTRIAN CENTRE AWS Lat: -33.85 Lon: 150.86 Height: 100.0 m
Data from the previous 72 hours. | See also: Recent months at Horsley Park
Date/Time
EST
Temp
°C
App
Temp
°C
Dew
Point
Rel
Hum
%
Delta-T
°C
Wind Press
QNH
hPa
Press
MSL
hPa
Rain
since 9 am
mm
Dir
 
Spd
km/h
Gust
km/h
Spd
kts
Gust
kts
02/10:30am 12.4 7.7 3.4 54 4.0 WSW 17 30 9 16 - - 0.0
02/10:00am 11.2 7.1 4.2 62 3.1 W 15 26 8 14 - - 0.0
02/09:30am 9.2 6.5 3.8 69 2.4 WNW 7 13 4 7 - - 0.0
02/09:00am 7.1 4.3 3.2 76 1.7 NW 7 11 4 6 - - 0.0
02/08:30am 6.4 3.7 2.5 76 1.6 NW 6 9 3 5 - - 0.0
02/08:00am 6.2 3.5 3.9 85 1.0 WNW 7 15 4 8 - - 0.0
02/07:30am 4.7 2.2 3.5 92 0.5 WNW 6 11 3 6 - - 0.0
02/07:00am 3.9 1.7 3.2 95 0.3 WNW 4 7 2 4 - - 0.0
02/06:30am 3.7 1.0 2.8 94 0.4 NW 6 9 3 5 - - 0.0
02/06:00am 2.8 0.2 1.0 88 0.7 NW 4 6 2 3 - - 0.0
02/05:30am 2.8 0.5 0.4 84 0.9 NW 2 4 1 2 - - 0.0
02/05:00am 4.4 2.1 0.2 74 1.6 WNW 2 6 1 3 - - 0.0
02/04:30am 5.4 3.1 0.2 69 2.0 SSW 2 6 1 3 - - 0.0
02/04:00am 6.6 3.0 0.7 66 2.3 WSW 9 17 5 9 - - 0.0
02/03:30am 5.6 1.7 1.0 72 1.8 WSW 11 17 6 9 - - 0.0
02/03:00am 5.4 1.9 1.1 74 1.7 WNW 9 11 5 6 - - 0.0
02/02:30am 6.0 3.0 1.0 70 2.0 WSW 6 9 3 5 - - 0.0
02/02:00am 6.6 2.0 1.3 69 2.1 WSW 15 19 8 10 - - 0.0
02/01:30am 6.5 2.4 2.0 73 1.8 SW 13 19 7 10 - - 0.0
02/01:00am 6.5 2.8 2.4 75 1.7 WSW 11 17 6 9 - - 0.0
02/12:30am 6.7 2.6 2.2 73 1.9 SW 13 17 7 9 - - 0.0
02/12:00am 7.1 3.4 2.2 71 2.0 SW 11 15 6 8 - - 0.0
 
Date/Time
EST
Temp
°C
App
Temp
°C
Dew
Point
Rel
Hum
%
Delta-T
°C
Wind Press
QNH
hPa
Press
MSL
hPa
Rain
since 9 am
mm
Dir
 
Spd
km/h
Gust
km/h
Spd
kts
Gust
kts
01/11:30pm 7.4 4.1 2.7 72 2.0 SW 9 17 5 9 - - 0.0
01/11:00pm 7.3 4.1 3.2 75 1.7 SW 9 13 5 7 - - 0.0
01/10:30pm 7.7 4.7 3.9 77 1.6 SW 9 19 5 10 - - 0.0
01/10:00pm 7.4 4.9 3.8 78 1.6 WSW 6 11 3 6 - - 0.0
01/09:30pm 6.5 5.1 3.7 82 1.2 CALM 0 0 0 0 - - 0.0
01/09:00pm 7.2 5.0 3.3 76 1.7 SW 4 7 2 4 - - 0.0
01/08:30pm 9.5 7.0 4.5 71 2.2 SW 7 11 4 6 - - 0.0
01/08:00pm 9.4 7.0 5.2 75 1.9 WSW 7 9 4 5 - - 0.0
01/07:30pm 8.6 6.6 4.6 76 1.8 SW 4 6 2 3 - - 0.0
01/07:00pm 8.4 6.0 4.4 76 1.8 SW 6 6 3 3 - - 0.0
01/06:30pm 9.8 7.5 4.8 71 2.3 SSW 6 6 3 3 - - 0.0
01/06:00pm 11.1 8.8 5.0 66 2.8 SW 6 7 3 4 - - 0.0
01/05:30pm 10.2 7.9 4.8 69 2.4 WSW 6 7 3 4 - - 0.0
01/05:00pm 11.0 9.9 4.9 66 2.8 CALM 0 0 0 0 - - 0.0
01/04:30pm 14.1 12.7 3.8 50 4.7 CALM 0 0 0 0 - - 0.0
01/04:00pm 14.0 11.5 3.5 49 4.8 SW 6 9 3 5 - - 0.0
01/03:30pm 14.5 11.4 3.6 48 5.0 SW 9 15 5 8 - - 0.0
01/03:00pm 14.8 12.0 3.3 46 5.2 SSW 7 15 4 8 - - 0.0
01/02:30pm 15.2 12.4 3.4 45 5.4 SSW 7 15 4 8 - - 0.0
01/02:00pm 15.4 12.7 3.5 45 5.5 WSW 7 13 4 7 - - 0.0
01/01:30pm 15.1 12.7 4.2 48 5.1 SW 6 11 3 6 - - 0.0
01/01:00pm 15.1 12.4 3.9 47 5.2 WSW 7 13 4 7 - - 0.0
01/12:30pm 14.3 10.4 3.5 48 4.9 SW 13 19 7 10 - - 0.0
01/12:00pm 13.9 10.7 3.1 48 4.9 WSW 9 17 5 9 - - 0.0
01/11:30am 13.6 11.4 5.3 57 3.9 SW 6 11 3 6 - - 0.0
01/11:00am 12.9 10.4 6.5 65 3.1 SW 9 13 5 7 - - 0.0
01/10:30am 12.1 10.0 6.8 70 2.5 SW 7 15 4 8 - - 0.0
01/10:00am 11.4 8.9 6.5 72 2.3 SW 9 19 5 10 - - 0.0
01/09:30am 10.9 8.8 6.5 74 2.1 SSW 7 13 4 7 - - 0.0
01/09:00am 9.9 7.7 6.4 79 1.6 SSW 7 9 4 5 - - 3.8
01/08:30am 9.4 7.5 6.7 83 1.3 S 6 9 3 5 - - 3.8
01/08:00am 8.8 7.6 8.2 96 0.3 SSE 4 9 2 5 - - 3.8
01/07:30am 8.0 6.3 7.4 96 0.3 SSW 6 7 3 4 - - 3.4
01/07:00am 8.1 7.5 7.3 95 0.4 CALM 0 0 0 0 - - 3.4
01/06:30am 8.5 8.0 7.7 95 0.4 CALM 0 2 0 1 - - 3.4
01/06:00am 9.1 8.7 8.2 94 0.4 CALM 0 2 0 1 - - 3.4
01/05:30am 9.5 9.2 8.7 95 0.4 CALM 0 0 0 0 - - 3.4
01/05:00am 9.7 9.5 8.9 95 0.4 CALM 0 0 0 0 - - 3.4
01/04:30am 9.8 9.1 8.7 93 0.5 NE 2 6 1 3 - - 2.4
01/04:00am 9.8 9.0 8.2 90 0.8 NE 2 4 1 2 - - 1.8
01/03:30am 10.7 9.8 7.8 82 1.4 W 2 6 1 3 - - 1.2
01/03:00am 11.7 9.3 6.8 72 2.3 SSW 9 13 5 7 - - 0.2
01/02:30am 11.2 9.2 7.1 76 2.0 SSW 7 13 4 7 - - 0.2
01/02:00am 12.1 9.6 6.4 68 2.7 SSW 9 15 5 8 - - 0.0
01/01:30am 12.0 9.5 6.5 69 2.6 SSW 9 13 5 7 - - 0.0
01/01:00am 12.3 9.5 6.8 69 2.6 SSW 11 17 6 9 - - 0.0
01/12:30am 11.7 9.3 7.2 74 2.2 SSW 9 15 5 8 - - 0.0
01/12:00am 11.5 9.5 7.2 75 2.1 SSW 7 11 4 6 - - 0.0
 
Date/Time
EST
Temp
°C
App
Temp
°C
Dew
Point
Rel
Hum
%
Delta-T
°C
Wind Press
QNH
hPa
Press
MSL
hPa
Rain
since 9 am
mm
Dir
 
Spd
km/h
Gust
km/h
Spd
kts
Gust
kts
30/11:30pm 11.5 9.5 7.2 75 2.1 SSW 7 11 4 6 - - 0.0
30/11:00pm 12.4 10.7 7.7 73 2.3 SW 6 11 3 6 - - 0.0
30/10:30pm 12.6 10.8 7.9 73 2.3 SW 7 11 4 6 - - 0.0
30/10:00pm 12.8 10.7 8.1 73 2.3 SW 9 13 5 7 - - 0.0
30/09:30pm 12.4 10.9 9.2 81 1.6 SSW 7 13 4 7 - - 0.0
30/09:00pm 11.5 11.3 9.1 85 1.2 CALM 0 0 0 0 - - 0.0
30/08:30pm 11.6 10.7 9.2 85 1.2 SSW 4 6 2 3 - - 0.0
30/08:00pm 12.3 12.2 9.3 82 1.5 CALM 0 6 0 3 - - 0.0
30/07:30pm 12.2 12.1 9.6 84 1.3 CALM 0 0 0 0 - - 0.0
30/07:00pm 12.3 12.1 9.0 80 1.7 CALM 0 0 0 0 - - 0.0
30/06:30pm 13.6 12.8 9.6 77 2.1 WSW 4 7 2 4 - - 0.0
30/06:00pm 12.4 12.3 9.4 82 1.5 CALM 0 0 0 0 - - 0.0
30/05:30pm 12.9 12.8 9.4 79 1.8 CALM 0 0 0 0 - - 0.0
30/05:00pm 13.6 13.4 9.1 74 2.3 CALM 0 0 0 0 - - 0.0
30/04:30pm 14.6 14.3 8.8 68 3.0 CALM 0 4 0 2 - - 0.0
30/04:00pm 15.4 14.3 8.6 64 3.5 N 4 7 2 4 - - 0.0
30/03:30pm 15.7 14.1 8.2 61 3.8 N 6 7 3 4 - - 0.0
30/03:00pm 17.3 15.1 7.9 54 4.8 N 9 13 5 7 - - 0.0
30/02:30pm 17.5 16.2 9.2 58 4.3 NNE 6 7 3 4 - - 0.0
30/02:00pm 16.3 14.9 8.8 61 3.9 N 6 11 3 6 - - 0.0
30/01:30pm 16.5 15.5 8.7 60 4.0 NNE 4 9 2 5 - - 0.0
30/01:00pm 16.2 16.0 8.9 62 3.8 CALM 0 0 0 0 - - 0.0
30/12:30pm 15.2 15.1 9.3 68 3.0 CALM 0 4 0 2 - - 0.0
30/12:00pm 13.2 13.0 9.1 76 2.1 CALM 0 0 0 0 - - 0.0
30/11:30am 11.6 10.5 8.6 82 1.5 WNW 4 6 2 3 - - 0.0
30/11:00am 11.2 9.8 8.9 86 1.1 WNW 6 7 3 4 - - 0.0
30/10:30am 10.6 10.6 9.7 94 0.5 CALM 0 0 0 0 - - 0.0
30/10:00am 9.6 8.6 8.7 94 0.4 N 4 6 2 3 - - 0.0
30/09:30am 8.8 7.7 8.5 98 0.1 SW 4 6 2 3 - - 0.0
30/09:00am 8.0 7.5 7.9 99 0.0 CALM 0 0 0 0 - - 0.0
30/08:30am 7.6 6.6 7.5 99 0.0 W 2 6 1 3 - - 0.0
30/08:00am 6.8 6.0 6.7 99 0.0 CALM 0 4 0 2 - - 0.0
30/07:30am 5.3 4.2 5.0 98 0.1 CALM 0 6 0 3 - - 0.0
30/07:00am 4.8 3.6 4.4 97 0.2 CALM 0 0 0 0 - - 0.0
30/06:30am 4.7 3.4 4.3 97 0.2 CALM 0 0 0 0 - - 0.0
30/06:00am 4.5 3.2 3.9 96 0.3 CALM 0 0 0 0 - - 0.0
30/05:30am 4.9 3.6 4.3 96 0.3 CALM 0 0 0 0 - - 0.0
30/05:00am 5.3 4.1 4.7 96 0.3 CALM 0 0 0 0 - - 0.0
30/04:30am 6.4 5.4 5.8 96 0.3 CALM 0 0 0 0 - - 0.0
30/04:00am 6.0 4.9 5.3 95 0.3 CALM 0 0 0 0 - - 0.0
30/03:30am 6.8 5.9 6.1 95 0.3 CALM 0 0 0 0 - - 0.0
30/03:00am 8.0 7.1 7.6 97 0.2 W 2 6 1 3 - - 0.0
30/02:30am 8.2 6.9 7.8 97 0.2 W 4 6 2 3 - - 0.0
30/02:00am 7.8 6.8 7.4 97 0.2 W 2 6 1 3 - - 0.0
30/01:30am 7.9 7.3 7.3 96 0.3 CALM 0 0 0 0 - - 0.0
30/01:00am 8.3 7.8 7.7 96 0.3 CALM 0 0 0 0 - - 0.0
30/12:30am 8.5 8.0 7.7 95 0.4 CALM 0 0 0 0 - - 0.0
30/12:00am 9.3 9.0 8.7 96 0.3 CALM 0 0 0 0 - - 0.0
 
Date/Time
EST
Temp
°C
App
Temp
°C
Dew
Point
Rel
Hum
%
Delta-T
°C
Wind Press
QNH
hPa
Press
MSL
hPa
Rain
since 9 am
mm
Dir
 
Spd
km/h
Gust
km/h
Spd
kts
Gust
kts
29/11:30pm 8.6 8.1 7.8 95 0.4 CALM 0 0 0 0 - - 0.0
29/11:00pm 9.0 8.5 7.8 92 0.6 CALM 0 0 0 0 - - 0.0
29/10:30pm 9.7 9.3 8.1 90 0.8 CALM 0 4 0 2 - - 0.0
29/10:00pm 10.2 9.6 8.8 91 0.7 W 2 4 1 2 - - 0.0
29/09:30pm 10.6 10.4 9.2 91 0.7 CALM 0 0 0 0 - - 0.0
29/09:00pm 10.8 10.7 9.4 91 0.7 CALM 0 0 0 0 - - 0.0
29/08:30pm 10.6 10.4 9.2 91 0.7 CALM 0 0 0 0 - - 0.0
29/08:00pm 11.0 10.7 8.6 85 1.2 CALM 0 0 0 0 - - 0.0
29/07:30pm 12.1 11.2 9.3 83 1.4 ENE 4 6 2 3 - - 0.0
29/07:00pm 12.4 11.0 8.9 79 1.8 ENE 6 7 3 4 - - 0.0
29/06:30pm 12.8 11.3 9.1 78 1.9 E 7 9 4 5 - - 0.0
29/06:00pm 12.8 11.4 8.7 76 2.1 E 6 9 3 5 - - 0.0
29/05:30pm 13.0 11.9 8.5 74 2.3 ENE 4 7 2 4 - - 0.0
29/05:00pm 14.0 13.3 8.6 70 2.7 E 2 2 1 1 - - 0.0
29/04:30pm 15.6 14.1 8.6 63 3.6 ENE 6 9 3 5 - - 0.0
29/04:00pm 15.9 15.5 8.4 61 3.8 CALM 0 2 0 1 - - 0.0
29/03:30pm 16.3 14.5 7.8 57 4.3 ENE 7 11 4 6 - - 0.0
29/03:00pm 18.0 16.7 7.7 51 5.2 ENE 4 9 2 5 - - 0.0
29/02:30pm 17.5 17.2 8.6 56 4.6 CALM 0 0 0 0 - - 0.0
29/02:00pm 16.6 15.9 8.6 59 4.1 N 2 6 1 3 - - 0.0
29/01:30pm 17.4 15.9 8.5 56 4.6 NE 6 13 3 7 - - 0.0
29/01:00pm 17.7 16.4 7.7 52 5.1 E 4 11 2 6 - - 0.0
29/12:30pm 17.6 16.9 8.7 56 4.6 SE 2 9 1 5 - - 0.0
29/12:00pm 16.9 16.5 9.6 62 3.8 NNW 2 4 1 2 - - 0.0
29/11:30am 16.1 15.2 9.1 63 3.6 WNW 4 7 2 4 - - 0.0
29/11:00am 14.7 13.6 8.6 67 3.1 W 4 9 2 5 - - 0.0

Other Formats:

Comma delimited format used in spreadsheet applications
http://www.bom.gov.au/fwo/IDN60801/IDN60801.94760.axf

JavaScript Object Notation format (JSON) in row-major order
http://www.bom.gov.au/fwo/IDN60801/IDN60801.94760.json